Time;durP1;ratioP1;P1;durP2;ratioP2;P2;SDS_P1;SDS_P2;PMS_P1;PMS_P2;Temp;Humidity;BMP_temperature;BMP_pressure;BME280_temperature;BME280_humidity;BME280_pressure;Samples;Min_cycle;Max_cycle;Signal;HPM_P1;HPM_P2
2023/03/30 00:02:22;;;;;;;3.67;2.80;;;12.70;93.50;;;;;;5043864;28;20443;-69
2023/03/30 00:04:49;;;;;;;3.80;2.40;;;12.70;93.60;;;;;;5045630;28;20605;-67
2023/03/30 00:07:18;;;;;;;5.90;2.50;;;12.70;93.10;;;;;;5045854;28;20503;-66
2023/03/30 00:09:45;;;;;;;3.70;2.40;;;12.70;93.10;;;;;;5049048;28;20425;-67
2023/03/30 00:12:14;;;;;;;3.50;2.60;;;12.70;92.90;;;;;;5042805;28;20742;-65
2023/03/30 00:14:42;;;;;;;5.43;2.15;;;12.70;92.80;;;;;;5041743;28;20448;-66
2023/03/30 00:17:09;;;;;;;3.67;2.60;;;12.70;92.80;;;;;;5044102;28;20518;-66
2023/03/30 00:19:37;;;;;;;4.75;2.50;;;12.70;92.70;;;;;;5046269;28;20459;-67
2023/03/30 00:22:04;;;;;;;3.63;2.00;;;12.70;92.40;;;;;;5044741;28;20453;-66
2023/03/30 00:24:32;;;;;;;4.15;2.30;;;12.70;92.30;;;;;;5044349;28;20527;-69
2023/03/30 00:26:59;;;;;;;4.85;2.67;;;12.70;92.10;;;;;;5044596;28;20820;-69
2023/03/30 00:29:26;;;;;;;3.60;2.17;;;12.80;92.00;;;;;;5046030;28;20883;-67
2023/03/30 00:31:53;;;;;;;5.20;2.60;;;12.80;91.90;;;;;;5051217;28;20435;-67
2023/03/30 00:34:20;;;;;;;3.30;2.30;;;12.70;91.90;;;;;;5044610;28;20420;-67
2023/03/30 00:36:47;;;;;;;4.68;2.50;;;12.70;91.90;;;;;;5043460;28;20470;-67
2023/03/30 00:39:17;;;;;;;4.40;2.22;;;12.70;91.80;;;;;;5044548;28;20459;-67
2023/03/30 00:41:45;;;;;;;4.10;2.53;;;12.70;91.90;;;;;;5045819;28;20421;-69
2023/03/30 00:44:46;;;;;;;2.60;2.10;;;12.60;92.10;;;;;;5045158;28;20915;-68
2023/03/30 00:47:12;;;;;;;4.65;2.30;;;12.60;92.00;;;;;;5041539;28;20821;-69
2023/03/30 00:49:40;;;;;;;3.00;2.03;;;12.60;91.90;;;;;;5046451;28;20429;-68
2023/03/30 00:52:07;;;;;;;3.95;2.05;;;12.60;91.90;;;;;;5044408;28;20449;-69
2023/03/30 00:54:35;;;;;;;5.10;2.30;;;12.70;91.60;;;;;;5043396;28;20441;-67
2023/03/30 00:57:03;;;;;;;5.25;2.03;;;12.70;91.20;;;;;;5044888;28;20441;-68
2023/03/30 00:59:30;;;;;;;4.13;1.80;;;12.80;91.00;;;;;;5042497;28;20439;-67
2023/03/30 01:01:57;;;;;;;4.25;2.50;;;12.80;90.90;;;;;;5044111;28;20887;-67
2023/03/30 01:04:24;;;;;;;3.70;1.90;;;12.70;90.80;;;;;;5045008;28;20424;-67
2023/03/30 01:06:54;;;;;;;3.40;1.85;;;12.80;90.80;;;;;;5043907;28;20460;-67
2023/03/30 01:09:21;;;;;;;4.60;2.22;;;12.80;90.70;;;;;;5044073;28;20440;-68
2023/03/30 01:11:48;;;;;;;3.23;2.10;;;12.80;90.70;;;;;;5044498;28;20441;-67
2023/03/30 01:14:17;;;;;;;3.95;2.05;;;12.80;90.60;;;;;;5043608;28;20836;-67
2023/03/30 01:16:52;;;;;;;3.50;2.20;;;12.80;90.50;;;;;;5044684;28;20433;-66
2023/03/30 01:20:08;;;;;;;2.85;1.92;;;12.90;90.40;;;;;;5037104;28;20471;-67
2023/03/30 01:22:57;;;;;;;2.88;2.30;;;12.90;90.20;;;;;;5035625;28;20435;-67
2023/03/30 01:25:50;;;;;;;13.48;10.75;;;13.00;89.90;;;;;;5038617;28;20425;-67
2023/03/30 01:28:32;;;;;;;35.25;28.75;;;13.00;89.80;;;;;;5042818;28;20437;-66
2023/03/30 01:31:27;;;;;;;14.13;8.70;;;13.10;89.00;;;;;;5044117;28;20909;-67
2023/03/30 01:34:26;;;;;;;6.47;4.70;;;13.20;88.30;;;;;;5043180;28;20471;-67
2023/03/30 01:37:22;;;;;;;5.18;2.70;;;13.20;87.70;;;;;;5044332;28;20442;-69
2023/03/30 01:39:55;;;;;;;4.47;2.33;;;13.30;87.20;;;;;;5042028;28;20456;-68
2023/03/30 01:42:27;;;;;;;4.90;2.40;;;13.40;86.40;;;;;;5043052;28;20470;-68
2023/03/30 01:45:01;;;;;;;4.65;2.42;;;13.40;85.80;;;;;;5042040;28;20639;-70
2023/03/30 01:47:36;;;;;;;4.38;2.00;;;13.50;85.20;;;;;;5043552;28;20479;-70
2023/03/30 01:50:08;;;;;;;5.60;2.67;;;13.50;84.60;;;;;;5042066;28;20425;-69
2023/03/30 01:52:41;;;;;;;3.00;2.23;;;13.60;84.60;;;;;;5046429;28;20529;-70
2023/03/30 01:55:14;;;;;;;4.13;2.10;;;13.60;84.20;;;;;;5044631;28;20509;-68
2023/03/30 01:57:48;;;;;;;5.35;2.47;;;13.60;83.50;;;;;;5039932;28;20505;-69
2023/03/30 02:00:17;;;;;;;5.05;2.00;;;13.70;83.60;;;;;;5038957;28;20509;-71
2023/03/30 02:02:48;;;;;;;3.20;2.10;;;13.70;82.90;;;;;;5040904;28;20437;-69
2023/03/30 02:05:17;;;;;;;5.60;2.20;;;13.80;82.40;;;;;;5040716;28;20469;-68
2023/03/30 02:07:47;;;;;;;3.85;2.60;;;13.80;82.20;;;;;;5041858;28;20433;-68
2023/03/30 02:10:17;;;;;;;7.00;2.40;;;13.80;82.40;;;;;;5042942;28;20863;-69
2023/03/30 02:12:45;;;;;;;3.70;1.90;;;13.80;82.50;;;;;;5043678;28;20879;-70
2023/03/30 02:15:14;;;;;;;4.22;2.05;;;13.80;81.60;;;;;;5043345;28;20461;-68
2023/03/30 02:17:44;;;;;;;4.93;2.40;;;13.80;81.30;;;;;;5043509;28;20433;-68
2023/03/30 02:20:12;;;;;;;3.65;1.70;;;13.90;80.50;;;;;;5043500;28;20948;-68
2023/03/30 02:22:39;;;;;;;4.70;2.07;;;14.00;80.40;;;;;;5042428;28;20471;-67
2023/03/30 02:25:07;;;;;;;5.05;2.08;;;14.10;79.90;;;;;;5042367;28;20433;-69
2023/03/30 02:27:36;;;;;;;5.32;2.10;;;14.20;79.00;;;;;;5044215;28;20413;-67
2023/03/30 02:30:05;;;;;;;4.35;2.05;;;14.40;77.80;;;;;;5042252;28;20440;-69
2023/03/30 02:32:41;;;;;;;4.68;2.13;;;14.50;77.30;;;;;;5039155;28;21487;-68
2023/03/30 02:35:36;;;;;;;3.22;1.85;;;14.60;76.50;;;;;;5043713;28;20417;-69
2023/03/30 02:38:28;;;;;;;7.35;2.03;;;14.70;76.10;;;;;;5040918;28;20879;-69
2023/03/30 02:41:03;;;;;;;3.50;1.50;;;14.70;75.10;;;;;;5043460;28;20465;-70
2023/03/30 02:43:37;;;;;;;4.47;2.03;;;14.80;73.80;;;;;;5042858;28;20429;-68
2023/03/30 02:46:16;;;;;;;4.13;1.80;;;14.90;73.50;;;;;;5041831;28;20795;-68
2023/03/30 02:48:51;;;;;;;8.00;2.10;;;14.90;73.40;;;;;;5041172;28;20589;-69
2023/03/30 02:51:33;;;;;;;4.88;1.90;;;14.90;74.20;;;;;;5034961;28;20995;-69
2023/03/30 02:54:08;;;;;;;4.80;2.03;;;14.80;74.30;;;;;;5043216;28;20472;-69
2023/03/30 02:56:42;;;;;;;3.92;1.90;;;14.70;74.30;;;;;;5042385;28;20576;-68
2023/03/30 02:59:15;;;;;;;4.03;1.60;;;14.70;74.60;;;;;;5044031;28;20496;-67
2023/03/30 03:01:46;;;;;;;4.03;1.92;;;14.60;75.40;;;;;;5041786;28;20513;-68
2023/03/30 03:04:14;;;;;;;2.95;1.73;;;14.50;75.00;;;;;;5037931;28;20444;-69
2023/03/30 03:06:42;;;;;;;5.18;2.22;;;14.40;75.70;;;;;;5042865;28;20439;-70
2023/03/30 03:09:09;;;;;;;6.80;2.38;;;14.30;76.00;;;;;;5043641;28;20870;-69
2023/03/30 03:11:36;;;;;;;5.00;2.17;;;14.30;76.70;;;;;;5044947;28;20748;-69
2023/03/30 03:14:03;;;;;;;3.67;2.13;;;14.20;77.30;;;;;;5042049;28;20505;-69
2023/03/30 03:16:31;;;;;;;5.90;2.55;;;14.10;77.90;;;;;;5041260;28;20433;-69
2023/03/30 03:18:58;;;;;;;3.80;2.00;;;14.10;79.10;;;;;;5041815;28;20555;-69
2023/03/30 03:21:24;;;;;;;5.27;2.30;;;14.00;79.20;;;;;;5041914;28;20781;-70
2023/03/30 03:23:51;;;;;;;4.70;2.50;;;14.00;79.80;;;;;;5042110;28;20425;-69
2023/03/30 03:26:18;;;;;;;6.20;2.50;;;14.00;80.00;;;;;;5042585;28;20561;-70
2023/03/30 03:28:45;;;;;;;4.22;2.20;;;14.00;80.60;;;;;;5042366;28;20425;-70
2023/03/30 03:31:12;;;;;;;5.97;2.40;;;13.90;81.00;;;;;;5041524;28;20424;-69
2023/03/30 03:33:40;;;;;;;3.95;2.13;;;13.90;81.40;;;;;;5039554;28;20478;-69
2023/03/30 03:36:09;;;;;;;4.90;2.38;;;13.80;81.90;;;;;;5042693;28;20440;-69
2023/03/30 03:38:36;;;;;;;3.85;2.20;;;13.70;82.50;;;;;;5043187;28;20428;-69
2023/03/30 03:41:03;;;;;;;5.82;2.35;;;13.60;83.20;;;;;;5042348;28;20441;-69
2023/03/30 03:43:30;;;;;;;5.78;2.38;;;13.50;84.40;;;;;;5040650;28;20429;-69
2023/03/30 03:45:58;;;;;;;4.53;2.30;;;13.40;85.10;;;;;;5042542;28;20459;-70
2023/03/30 03:48:25;;;;;;;5.83;2.40;;;13.30;85.30;;;;;;5041448;28;20929;-69
2023/03/30 03:50:55;;;;;;;5.05;2.20;;;13.20;85.80;;;;;;5042064;28;20440;-69
2023/03/30 03:53:23;;;;;;;5.78;2.63;;;13.20;86.40;;;;;;5041380;28;20433;-70
2023/03/30 03:55:49;;;;;;;4.22;2.55;;;13.10;87.40;;;;;;5043689;28;20441;-67
2023/03/30 03:58:17;;;;;;;5.63;2.83;;;13.00;87.70;;;;;;5042854;28;20435;-69
2023/03/30 04:00:44;;;;;;;4.15;2.60;;;13.00;88.60;;;;;;5038682;28;20450;-69
2023/03/30 04:03:11;;;;;;;6.75;2.92;;;13.00;89.00;;;;;;5036888;28;20428;-69
2023/03/30 04:05:38;;;;;;;7.68;3.25;;;12.90;90.20;;;;;;5041908;28;20439;-70
2023/03/30 04:08:09;;;;;;;5.50;2.97;;;12.90;90.00;;;;;;5041663;28;20452;-68
2023/03/30 04:10:36;;;;;;;6.32;3.65;;;12.90;90.20;;;;;;5036406;28;20429;-69
2023/03/30 04:13:03;;;;;;;5.00;2.92;;;13.00;90.40;;;;;;5040570;28;20440;-69
2023/03/30 04:15:30;;;;;;;5.00;2.72;;;13.00;90.50;;;;;;5040583;28;20899;-71
2023/03/30 04:17:57;;;;;;;5.18;2.85;;;13.10;90.60;;;;;;5040656;28;20489;-68
2023/03/30 04:20:25;;;;;;;5.93;2.75;;;13.10;90.50;;;;;;5042042;28;20935;-70
2023/03/30 04:22:52;;;;;;;4.55;3.00;;;13.20;90.40;;;;;;5038827;28;20425;-68
2023/03/30 04:25:21;;;;;;;5.60;2.90;;;13.30;90.30;;;;;;5042500;28;20543;-69
2023/03/30 04:27:49;;;;;;;7.75;3.40;;;13.30;90.20;;;;;;5042986;28;20908;-69
2023/03/30 04:30:16;;;;;;;6.63;3.20;;;13.40;90.00;;;;;;5041954;28;20432;-68
2023/03/30 04:32:43;;;;;;;6.60;3.30;;;13.40;89.90;;;;;;5044808;28;20892;-68
2023/03/30 04:35:10;;;;;;;6.40;3.10;;;13.50;90.00;;;;;;5046582;28;20421;-69
2023/03/30 04:37:40;;;;;;;5.55;3.20;;;13.50;89.80;;;;;;5045940;28;20876;-69
2023/03/30 04:40:09;;;;;;;5.32;3.40;;;13.50;89.70;;;;;;5047375;28;20532;-70
2023/03/30 04:42:37;;;;;;;6.25;3.10;;;13.50;90.20;;;;;;5044802;28;20511;-70
2023/03/30 04:45:05;;;;;;;3.72;2.85;;;13.60;89.40;;;;;;5045620;28;20437;-70
2023/03/30 04:47:32;;;;;;;6.03;3.38;;;13.60;89.20;;;;;;5042565;28;20440;-70
2023/03/30 04:49:59;;;;;;;5.15;3.30;;;13.60;89.00;;;;;;5043371;28;20444;-70
2023/03/30 04:52:27;;;;;;;6.00;3.40;;;13.60;88.80;;;;;;5038345;28;20974;-70
2023/03/30 04:54:54;;;;;;;4.78;3.20;;;13.70;88.60;;;;;;5045434;28;20413;-70
2023/03/30 04:57:20;;;;;;;7.25;3.30;;;13.80;88.40;;;;;;5038513;28;20448;-70
2023/03/30 04:59:48;;;;;;;5.88;3.70;;;13.90;88.20;;;;;;5046765;28;20509;-69
2023/03/30 05:02:15;;;;;;;5.78;3.45;;;13.90;87.80;;;;;;5042500;28;20437;-69
2023/03/30 05:04:42;;;;;;;6.47;3.78;;;13.90;87.80;;;;;;5043857;28;20463;-68
2023/03/30 05:07:09;;;;;;;6.15;3.40;;;14.00;87.70;;;;;;5043587;28;20672;-68
2023/03/30 05:09:36;;;;;;;7.60;3.08;;;14.00;87.70;;;;;;5042169;28;20441;-69
2023/03/30 05:12:03;;;;;;;5.72;3.80;;;14.00;87.80;;;;;;5044258;28;20429;-68
2023/03/30 05:14:30;;;;;;;6.35;3.40;;;14.00;87.80;;;;;;5040748;28;20429;-68
2023/03/30 05:16:58;;;;;;;6.25;3.30;;;14.10;87.80;;;;;;5038976;28;20423;-68
2023/03/30 05:19:25;;;;;;;5.88;3.38;;;14.10;87.90;;;;;;5037701;28;20525;-69
2023/03/30 05:21:52;;;;;;;8.20;4.15;;;14.10;87.80;;;;;;5043000;28;20851;-68
2023/03/30 05:24:18;;;;;;;8.50;3.90;;;14.10;87.50;;;;;;5037767;28;20431;-69
2023/03/30 05:26:46;;;;;;;6.22;3.40;;;14.10;87.50;;;;;;5044687;28;20527;-70
2023/03/30 05:29:13;;;;;;;7.10;3.30;;;14.20;87.30;;;;;;5041387;28;20936;-71
2023/03/30 05:31:39;;;;;;;5.72;3.15;;;14.20;87.00;;;;;;5041222;28;20452;-70
2023/03/30 05:34:07;;;;;;;5.30;3.00;;;14.20;87.00;;;;;;5040596;28;20425;-71
2023/03/30 05:36:35;;;;;;;5.60;3.30;;;14.30;86.60;;;;;;5041313;28;20514;-70
2023/03/30 05:39:03;;;;;;;5.90;2.97;;;14.30;86.40;;;;;;5039079;28;20526;-70
2023/03/30 05:41:31;;;;;;;7.63;3.23;;;14.40;85.80;;;;;;5038259;28;20433;-70
2023/03/30 05:43:57;;;;;;;5.80;2.85;;;14.40;85.50;;;;;;5041553;28;20460;-70
2023/03/30 05:46:25;;;;;;;6.57;3.25;;;14.50;85.00;;;;;;5042682;28;20437;-70
2023/03/30 05:48:51;;;;;;;7.00;3.23;;;14.50;84.80;;;;;;5042084;28;20501;-70
2023/03/30 05:51:19;;;;;;;5.37;3.20;;;14.50;83.80;;;;;;5045150;28;20886;-70
2023/03/30 05:53:46;;;;;;;8.50;3.33;;;14.60;84.00;;;;;;5044217;28;20413;-70
2023/03/30 05:56:13;;;;;;;6.32;3.20;;;14.60;83.50;;;;;;5045320;28;20459;-70
2023/03/30 05:58:40;;;;;;;5.97;3.30;;;14.70;83.10;;;;;;5042016;28;20488;-70
2023/03/30 06:01:08;;;;;;;5.45;3.80;;;14.70;82.30;;;;;;5037998;28;20791;-69
2023/03/30 06:03:35;;;;;;;6.78;3.65;;;14.80;82.50;;;;;;5042562;28;20425;-70
2023/03/30 06:06:02;;;;;;;6.43;3.20;;;14.80;82.60;;;;;;5044327;28;20417;-69
2023/03/30 06:08:30;;;;;;;6.95;3.95;;;14.80;82.60;;;;;;5043082;28;20520;-70
2023/03/30 06:10:57;;;;;;;7.00;3.30;;;14.80;83.10;;;;;;5043596;28;20432;-67
2023/03/30 06:13:24;;;;;;;5.18;3.60;;;14.80;83.10;;;;;;5043116;28;20426;-70
2023/03/30 06:15:50;;;;;;;7.88;3.70;;;14.70;83.40;;;;;;5041007;28;20832;-70
2023/03/30 06:18:17;;;;;;;6.60;3.65;;;14.70;83.40;;;;;;5042745;28;20486;-70
2023/03/30 06:20:47;;;;;;;4.85;3.08;;;14.80;83.80;;;;;;5042555;28;20573;-68
2023/03/30 06:23:14;;;;;;;5.53;3.50;;;14.70;83.80;;;;;;5042987;28;20715;-68
2023/03/30 06:25:45;;;;;;;5.03;3.20;;;14.70;84.30;;;;;;5038514;28;20437;-70
2023/03/30 06:28:12;;;;;;;6.03;3.50;;;14.70;84.20;;;;;;5042170;28;20421;-68
2023/03/30 06:30:39;;;;;;;7.65;3.60;;;14.70;84.60;;;;;;5042926;28;20429;-68
2023/03/30 06:33:05;;;;;;;5.97;3.60;;;14.70;84.50;;;;;;5040761;28;20414;-71
2023/03/30 06:35:32;;;;;;;6.53;3.60;;;14.70;84.40;;;;;;5041476;28;20459;-70
2023/03/30 06:37:59;;;;;;;7.20;3.53;;;14.70;84.40;;;;;;5049597;28;20501;-67
2023/03/30 06:40:26;;;;;;;7.38;3.70;;;14.80;84.20;;;;;;5052317;28;20417;-70
2023/03/30 06:42:55;;;;;;;7.63;3.95;;;14.80;84.30;;;;;;5042103;28;20429;-69
2023/03/30 06:45:22;;;;;;;6.97;3.30;;;14.70;84.70;;;;;;5040257;28;20433;-70
2023/03/30 06:47:51;;;;;;;6.50;3.20;;;14.80;84.30;;;;;;5044764;28;20500;-68
2023/03/30 06:50:18;;;;;;;7.03;3.40;;;14.80;83.40;;;;;;5042611;28;20410;-70
2023/03/30 06:52:45;;;;;;;7.03;3.97;;;14.80;84.30;;;;;;5042814;28;20417;-70
2023/03/30 06:55:12;;;;;;;5.10;3.65;;;14.90;84.50;;;;;;5043390;28;20869;-69
2023/03/30 06:57:38;;;;;;;7.47;3.40;;;14.90;84.90;;;;;;5044124;28;20523;-70
2023/03/30 07:00:12;;;;;;;6.18;3.47;;;14.90;84.90;;;;;;5041697;28;20456;-69
2023/03/30 07:02:39;;;;;;;5.80;3.60;;;14.90;85.40;;;;;;5036955;28;20509;-71
2023/03/30 07:05:07;;;;;;;5.32;3.20;;;15.00;85.40;;;;;;5041692;28;20417;-72
2023/03/30 07:07:33;;;;;;;9.00;3.70;;;15.00;85.30;;;;;;5043963;28;20417;-70
2023/03/30 07:10:01;;;;;;;4.97;3.78;;;14.90;85.70;;;;;;5044227;28;20521;-70
2023/03/30 07:12:28;;;;;;;4.97;3.20;;;14.90;85.80;;;;;;5043694;28;20424;-72
2023/03/30 07:14:54;;;;;;;6.53;3.30;;;14.90;85.80;;;;;;5040034;28;20879;-72
2023/03/30 07:17:23;;;;;;;5.90;2.80;;;15.00;85.50;;;;;;5035281;28;20457;-72
2023/03/30 07:19:49;;;;;;;6.90;3.30;;;15.10;85.00;;;;;;5041968;28;20441;-73
2023/03/30 07:22:16;;;;;;;5.22;3.40;;;15.10;84.40;;;;;;5044926;28;20581;-73
2023/03/30 07:24:43;;;;;;;5.95;2.75;;;15.20;84.60;;;;;;5045030;28;20532;-71
2023/03/30 07:27:10;;;;;;;4.22;2.85;;;15.20;83.80;;;;;;5051154;28;20452;-70
2023/03/30 07:29:37;;;;;;;5.63;2.70;;;15.40;82.80;;;;;;5045182;28;20493;-72
2023/03/30 07:32:04;;;;;;;4.18;2.60;;;15.40;82.40;;;;;;5042193;28;21075;-72
2023/03/30 07:34:32;;;;;;;3.90;2.50;;;15.40;81.30;;;;;;5038421;28;20476;-71
2023/03/30 07:37:00;;;;;;;5.88;2.75;;;15.50;80.50;;;;;;5035952;28;20505;-71
2023/03/30 07:39:27;;;;;;;5.25;2.65;;;15.50;80.30;;;;;;5042464;28;20421;-72
2023/03/30 07:41:55;;;;;;;5.80;2.40;;;15.70;77.50;;;;;;5042785;28;20903;-71
2023/03/30 07:44:21;;;;;;;4.00;2.22;;;15.70;77.10;;;;;;5039776;28;20444;-70
2023/03/30 07:46:48;;;;;;;5.35;2.70;;;15.70;76.70;;;;;;5039424;28;20894;-70
2023/03/30 07:49:15;;;;;;;4.75;2.60;;;15.70;76.80;;;;;;5043234;28;20532;-71
2023/03/30 07:51:43;;;;;;;4.45;2.42;;;15.70;77.40;;;;;;5044054;28;20417;-69
2023/03/30 07:54:10;;;;;;;4.80;2.30;;;15.70;77.00;;;;;;5042676;28;20434;-71
2023/03/30 07:56:38;;;;;;;3.55;2.00;;;15.70;76.60;;;;;;5044554;28;20433;-71
2023/03/30 07:59:06;;;;;;;3.00;2.03;;;15.70;74.60;;;;;;5044324;28;20417;-71
2023/03/30 08:01:33;;;;;;;3.58;2.10;;;15.70;75.70;;;;;;5044791;28;20798;-71
2023/03/30 08:04:01;;;;;;;3.22;1.85;;;15.70;76.40;;;;;;5047616;28;20500;-71
2023/03/30 08:06:29;;;;;;;3.00;1.58;;;15.70;75.30;;;;;;5047619;28;20436;-70
2023/03/30 08:08:57;;;;;;;3.90;1.80;;;15.70;73.50;;;;;;5048860;28;20440;-70
2023/03/30 08:11:23;;;;;;;2.38;1.50;;;15.70;73.00;;;;;;5049001;28;20436;-70
2023/03/30 08:13:50;;;;;;;5.45;1.73;;;15.70;72.90;;;;;;5038558;28;20429;-71
2023/03/30 08:16:17;;;;;;;4.07;1.73;;;15.70;72.60;;;;;;5047881;28;20508;-71
2023/03/30 08:18:46;;;;;;;4.13;1.70;;;15.70;72.30;;;;;;5048213;28;20452;-71
2023/03/30 08:21:12;;;;;;;3.90;1.38;;;15.70;72.40;;;;;;5046544;28;20433;-71
2023/03/30 08:23:39;;;;;;;3.22;1.83;;;15.70;72.10;;;;;;5047088;28;20820;-71
2023/03/30 08:26:07;;;;;;;3.20;1.58;;;15.70;72.80;;;;;;5050663;28;20800;-70
2023/03/30 08:28:35;;;;;;;5.43;1.50;;;15.70;72.60;;;;;;5047601;28;20483;-71
2023/03/30 08:31:05;;;;;;;3.70;1.40;;;15.70;72.80;;;;;;5047476;28;20428;-69
2023/03/30 08:33:33;;;;;;;2.83;1.50;;;15.70;72.60;;;;;;5046317;28;20771;-69
2023/03/30 08:36:00;;;;;;;4.28;1.70;;;15.70;72.50;;;;;;5044989;28;20429;-74
2023/03/30 08:38:27;;;;;;;4.10;1.60;;;15.60;72.90;;;;;;5047811;28;20420;-70
2023/03/30 08:40:53;;;;;;;2.92;1.55;;;15.70;72.80;;;;;;5047817;28;20890;-70
2023/03/30 08:43:45;;;;;;;2.67;1.50;;;15.70;72.20;;;;;;5046492;28;20421;-70
2023/03/30 08:46:14;;;;;;;3.25;1.90;;;15.80;72.70;;;;;;5047180;28;20428;-70
2023/03/30 08:48:41;;;;;;;4.47;1.70;;;16.00;71.70;;;;;;5061130;28;20416;-70
2023/03/30 08:51:16;;;;;;;4.80;1.88;;;16.20;71.30;;;;;;5046675;28;20428;-71
2023/03/30 08:53:43;;;;;;;3.53;1.50;;;16.30;70.40;;;;;;5046483;28;20432;-73
2023/03/30 08:56:16;;;;;;;3.67;1.60;;;16.30;67.60;;;;;;5047704;28;20512;-71
2023/03/30 08:58:53;;;;;;;3.42;1.40;;;16.20;67.10;;;;;;5047180;28;20424;-75
2023/03/30 09:01:24;;;;;;;4.73;2.00;;;16.20;68.70;;;;;;5047475;28;20417;-71
2023/03/30 09:04:01;;;;;;;3.67;1.67;;;16.20;68.00;;;;;;5044896;28;20848;-72
2023/03/30 09:06:40;;;;;;;71.03;64.82;;;16.20;68.00;;;;;;5037599;28;20463;-71
2023/03/30 09:09:10;;;;;;;5.65;1.60;;;16.30;68.90;;;;;;5044598;28;20864;-71
2023/03/30 09:11:38;;;;;;;8.43;2.60;;;16.30;79.80;;;;;;5046423;28;20862;-71
2023/03/30 09:14:12;;;;;;;8.25;2.40;;;15.70;93.30;;;;;;5044854;28;20505;-70
2023/03/30 09:16:45;;;;;;;4.30;2.00;;;14.40;95.60;;;;;;5046867;28;20417;-71
2023/03/30 09:19:17;;;;;;;5.55;2.72;;;13.60;98.50;;;;;;5045913;28;20420;-72
2023/03/30 09:21:45;;;;;;;5.17;2.30;;;13.20;98.10;;;;;;5044945;28;20413;-71
2023/03/30 09:24:14;;;;;;;4.60;2.10;;;13.00;99.90;;;;;;5044385;28;20516;-71
2023/03/30 09:26:49;;;;;;;4.57;2.28;;;13.00;99.90;;;;;;5045066;28;20416;-71
2023/03/30 09:29:21;;;;;;;4.53;2.67;;;13.10;99.90;;;;;;5046697;28;20469;-70
2023/03/30 09:31:55;;;;;;;5.88;2.28;;;13.30;99.10;;;;;;5032079;28;20416;-71
2023/03/30 09:34:27;;;;;;;4.90;2.10;;;13.40;99.30;;;;;;5042958;28;20413;-71
2023/03/30 09:36:57;;;;;;;5.40;2.20;;;13.40;97.80;;;;;;5040731;28;20421;-71
2023/03/30 09:39:25;;;;;;;4.82;2.13;;;13.30;97.20;;;;;;5045951;28;20537;-70
2023/03/30 09:42:05;;;;;;;2.80;1.40;;;13.20;97.70;;;;;;5046198;28;20516;-70
2023/03/30 09:44:37;;;;;;;2.85;1.63;;;12.90;99.00;;;;;;5044385;28;20773;-71
2023/03/30 09:47:21;;;;;;;2.83;1.17;;;12.50;99.40;;;;;;5047116;28;20417;-70
2023/03/30 09:49:48;;;;;;;4.90;1.30;;;12.00;99.90;;;;;;5048688;28;20428;-71
2023/03/30 09:52:21;;;;;;;5.10;1.60;;;11.10;99.90;;;;;;5048736;28;20428;-70
2023/03/30 09:54:48;;;;;;;5.03;1.60;;;10.50;99.90;;;;;;5048451;28;20524;-71
2023/03/30 09:57:28;;;;;;;5.97;1.60;;;10.20;99.90;;;;;;5050099;28;20792;-72
2023/03/30 09:59:57;;;;;;;3.58;1.33;;;10.00;99.90;;;;;;5049658;28;20432;-74
2023/03/30 10:02:27;;;;;;;5.70;2.00;;;9.90;99.90;;;;;;5050405;28;20420;-71
2023/03/30 10:05:03;;;;;;;7.40;2.10;;;9.80;99.90;;;;;;5051337;28;20456;-73
2023/03/30 10:07:35;;;;;;;6.13;2.13;;;9.80;99.90;;;;;;5040495;28;20507;-72
2023/03/30 10:10:14;;;;;;;6.28;2.03;;;9.80;99.90;;;;;;5047396;28;20428;-70
2023/03/30 10:12:41;;;;;;;7.38;2.70;;;9.90;99.90;;;;;;5052119;28;20498;-72
2023/03/30 10:15:16;;;;;;;6.03;1.80;;;10.00;99.90;;;;;;5048899;28;20418;-70
2023/03/30 10:17:44;;;;;;;6.40;2.00;;;10.30;99.90;;;;;;5050620;28;20647;-72
2023/03/30 10:20:23;;;;;;;5.27;1.53;;;10.30;99.90;;;;;;5047105;28;20499;-70
2023/03/30 10:22:52;;;;;;;4.33;1.40;;;10.40;99.90;;;;;;5034453;28;20699;-69
2023/03/30 10:25:22;;;;;;;4.30;1.42;;;10.60;99.90;;;;;;5045554;28;20429;-71
2023/03/30 10:27:52;;;;;;;4.03;2.10;;;10.70;99.90;;;;;;5036109;28;20508;-72
2023/03/30 10:30:24;;;;;;;3.00;1.40;;;10.70;99.90;;;;;;5054766;28;20979;-70
2023/03/30 10:32:53;;;;;;;2.88;1.40;;;10.60;99.90;;;;;;5069165;28;20417;-71
2023/03/30 10:35:23;;;;;;;3.50;1.30;;;10.60;99.90;;;;;;5055521;28;20432;-70
2023/03/30 10:37:52;;;;;;;3.97;1.45;;;10.60;99.90;;;;;;5053663;28;20519;-71
2023/03/30 10:40:21;;;;;;;2.15;1.00;;;10.70;99.90;;;;;;5053247;28;20416;-71
2023/03/30 10:42:54;;;;;;;3.30;1.10;;;10.80;99.90;;;;;;5053972;28;20677;-72
2023/03/30 10:45:27;;;;;;;3.28;1.27;;;11.10;99.90;;;;;;5047758;28;20433;-72
2023/03/30 10:48:23;;;;;;;2.35;1.00;;;11.40;99.90;;;;;;5047003;28;20432;-72
2023/03/30 10:50:55;;;;;;;1.90;1.20;;;11.90;99.90;;;;;;5055983;28;20491;-72
2023/03/30 10:53:33;;;;;;;2.30;0.90;;;12.50;99.90;;;;;;5044464;28;20811;-72
2023/03/30 10:56:09;;;;;;;2.00;1.23;;;12.80;99.20;;;;;;5051926;28;20494;-72
2023/03/30 10:58:56;;;;;;;2.38;1.20;;;12.90;99.00;;;;;;5052110;28;20478;-72
2023/03/30 11:01:34;;;;;;;4.40;1.40;;;13.10;99.00;;;;;;5046987;28;20537;-71
2023/03/30 11:04:06;;;;;;;2.28;1.00;;;13.40;97.20;;;;;;5044925;28;20413;-72
2023/03/30 11:06:37;;;;;;;1.77;0.90;;;13.30;96.40;;;;;;5045302;28;20424;-72
2023/03/30 11:09:13;;;;;;;2.07;0.87;;;13.40;96.30;;;;;;5034009;28;20902;-72
2023/03/30 11:11:45;;;;;;;1.88;0.80;;;13.50;95.50;;;;;;5045068;28;20417;-72
2023/03/30 11:14:19;;;;;;;1.90;0.90;;;13.80;96.00;;;;;;5034413;28;20515;-72
2023/03/30 11:16:51;;;;;;;2.23;0.90;;;14.20;91.80;;;;;;5045704;28;20497;-72
2023/03/30 11:19:22;;;;;;;2.45;1.20;;;14.30;93.20;;;;;;5046727;28;20425;-72
2023/03/30 11:21:55;;;;;;;2.35;1.15;;;14.70;93.30;;;;;;5045560;28;20434;-71
2023/03/30 11:24:24;;;;;;;2.97;1.20;;;15.00;90.70;;;;;;5044565;28;20430;-71
2023/03/30 11:26:59;;;;;;;3.40;1.40;;;15.10;88.40;;;;;;5050750;28;20438;-72
2023/03/30 11:29:32;;;;;;;3.50;1.42;;;14.80;90.00;;;;;;5060739;28;20429;-72
2023/03/30 11:32:13;;;;;;;3.63;1.50;;;14.60;90.60;;;;;;5045126;28;20424;-73
2023/03/30 11:34:54;;;;;;;2.58;1.20;;;14.50;91.00;;;;;;5038588;28;20528;-73
2023/03/30 11:37:28;;;;;;;4.30;1.40;;;14.40;90.90;;;;;;5038550;28;20860;-72
2023/03/30 11:40:00;;;;;;;6.73;1.60;;;14.30;90.70;;;;;;5031322;28;20444;-72
2023/03/30 11:42:29;;;;;;;4.90;1.80;;;14.40;91.70;;;;;;5061015;22;20440;-70
2023/03/30 11:44:57;;;;;;;3.30;1.60;;;14.70;91.10;;;;;;5059227;28;20914;-70
2023/03/30 11:47:38;;;;;;;4.03;1.73;;;15.10;88.60;;;;;;5065703;28;20419;-70
2023/03/30 11:50:17;;;;;;;5.15;1.98;;;15.50;86.90;;;;;;5069249;28;20419;-69
2023/03/30 11:52:55;;;;;;;3.30;1.40;;;15.70;82.30;;;;;;5067783;28;20423;-70
2023/03/30 11:55:39;;;;;;;4.32;1.50;;;16.00;80.50;;;;;;5065710;28;20426;-70
2023/03/30 11:58:15;;;;;;;4.32;1.80;;;16.10;78.40;;;;;;5062693;28;20433;-71
2023/03/30 12:00:56;;;;;;;4.53;1.30;;;16.30;77.20;;;;;;5063542;28;20431;-71
2023/03/30 12:03:38;;;;;;;2.58;0.80;;;16.60;74.60;;;;;;5046314;28;20514;-71
2023/03/30 12:06:20;;;;;;;2.40;1.00;;;16.60;68.80;;;;;;5047831;28;20924;-72
2023/03/30 12:09:02;;;;;;;1.70;0.60;;;16.50;72.40;;;;;;5058856;28;20469;-73
2023/03/30 12:11:38;;;;;;;1.80;0.70;;;16.70;69.30;;;;;;5061353;28;20441;-73
2023/03/30 12:14:20;;;;;;;1.80;0.90;;;16.60;66.80;;;;;;5049944;28;20949;-72
2023/03/30 12:16:50;;;;;;;1.33;0.60;;;16.50;67.50;;;;;;5054698;28;20433;-73
2023/03/30 12:19:24;;;;;;;1.67;0.90;;;16.80;68.00;;;;;;5050607;28;20514;-72
2023/03/30 12:21:55;;;;;;;1.88;0.90;;;17.30;66.30;;;;;;5057456;28;20500;-71
2023/03/30 12:24:30;;;;;;;1.35;0.60;;;17.50;63.50;;;;;;5057119;28;20524;-72
2023/03/30 12:26:57;;;;;;;1.80;0.85;;;17.40;64.80;;;;;;5057091;28;20486;-72
2023/03/30 12:29:23;;;;;;;2.20;0.70;;;17.30;65.20;;;;;;5066863;28;20419;-72
2023/03/30 12:32:07;;;;;;;2.33;0.80;;;17.10;66.60;;;;;;5059172;28;20686;-72
2023/03/30 12:34:36;;;;;;;2.10;0.90;;;17.00;66.30;;;;;;5058312;28;21085;-71
2023/03/30 12:37:08;;;;;;;2.70;1.10;;;16.60;67.50;;;;;;5057051;28;20599;-71
2023/03/30 12:39:43;;;;;;;2.70;1.13;;;16.40;68.10;;;;;;5059514;28;20504;-70
2023/03/30 12:42:25;;;;;;;2.58;1.02;;;16.10;71.20;;;;;;5048421;28;20971;-71
2023/03/30 12:45:14;;;;;;;3.40;1.10;;;15.80;72.90;;;;;;5050606;28;20425;-70
2023/03/30 12:47:58;;;;;;;3.70;1.30;;;15.60;76.00;;;;;;5033720;28;20430;-71
2023/03/30 12:50:36;;;;;;;3.20;1.30;;;15.60;76.70;;;;;;5051139;28;20440;-72
2023/03/30 12:53:18;;;;;;;3.00;1.70;;;15.80;75.70;;;;;;5051336;28;20477;-72
2023/03/30 12:55:48;;;;;;;4.28;1.60;;;15.90;76.70;;;;;;5052866;28;20436;-73
2023/03/30 12:58:48;;;;;;;3.60;1.50;;;16.20;74.30;;;;;;5052924;28;20448;-72
2023/03/30 13:01:47;;;;;;;5.32;1.80;;;16.50;72.00;;;;;;5050824;28;20429;-69
2023/03/30 13:04:16;;;;;;;4.07;1.63;;;16.40;72.20;;;;;;5053273;28;20944;-71
2023/03/30 13:06:52;;;;;;;4.00;1.40;;;16.10;74.30;;;;;;5058654;28;20442;-71
2023/03/30 13:09:52;;;;;;;4.72;1.60;;;15.70;76.70;;;;;;5049630;28;20429;-71